Main page
METAR-TAF:

METAR-TAF

Airports :

Samedan Airport

St. Moritz, Switzerland

latitude: 46-32-03N, longitude: 9-53-03E, elevation: 1707 m

Current weather observation

The report was made 14 minutes ago, at 08:50 UTC
Wind 1 kt from variable directions
Temperature -6°C
Humidity 86%
Pressure 1018 hPa
Visibility 10 km or more
no clouds below 1500 m and no cumulonimbus

METAR: LSZS 180850Z VRB01KT CAVOK M06/M08 Q1018 RMK D

Time: 10:04 (09:04 UTC)

Forecast

The report was made 39 minutes ago, at 08:25 UTC
Forecast valid from 18 at 09 UTC to 18 at 18 UTC
Wind 2 kt from the South
Visibility 10 km or more
no clouds below 1500 m and no cumulonimbus

TAF: LSZS 180825Z 1809/1818 17002KT CAVOK TX02/1814Z

Weather observations and forecasts of more than 4000 airports (METAR and TAF reports).

The available stations are represented by yellow and red dots on the map.

Hover mouse over dot to see the name of the station.

Then click to see weather observations and forecasts.

To change the map : click on the green buttons with a black cross to zoom in, on the green button with a dash to zoom out, or on the green arrows for adjacent maps.


METAR-TAF: